createdAt,value
2017-03-13T00:00:58.679Z,0
2017-03-13T00:01:58.658Z,0
2017-03-13T00:02:58.629Z,0
2017-03-13T00:03:58.610Z,0
2017-03-13T00:04:58.588Z,0
2017-03-13T00:05:58.574Z,0
2017-03-13T00:06:58.167Z,0
2017-03-13T00:07:58.551Z,0
2017-03-13T00:08:58.514Z,0
2017-03-13T00:09:58.487Z,0
2017-03-13T00:10:58.476Z,0
2017-03-13T00:11:58.423Z,0
2017-03-13T00:12:58.421Z,0
2017-03-13T00:13:58.417Z,0
2017-03-13T00:14:58.364Z,0
2017-03-13T00:15:58.381Z,0
2017-03-13T00:16:58.334Z,0
2017-03-13T00:17:58.357Z,0
2017-03-13T00:18:58.289Z,0
2017-03-13T00:19:58.284Z,0
2017-03-13T00:20:58.279Z,0
2017-03-13T00:21:58.221Z,0
2017-03-13T00:22:58.203Z,0
2017-03-13T00:23:58.233Z,0
2017-03-13T00:24:58.200Z,0
2017-03-13T00:25:58.163Z,0
2017-03-13T00:26:58.139Z,0
2017-03-13T00:27:58.094Z,0
2017-03-13T00:28:58.067Z,0
2017-03-13T00:29:57.690Z,0
2017-03-13T00:30:57.677Z,0
2017-03-13T00:31:58.005Z,0
2017-03-13T00:32:58.021Z,0
2017-03-13T00:33:57.968Z,0
2017-03-13T00:34:57.963Z,0
2017-03-13T00:35:57.569Z,0
2017-03-13T00:36:57.519Z,0
2017-03-13T00:37:57.902Z,0
2017-03-13T00:38:57.867Z,0
2017-03-13T00:39:57.860Z,0
2017-03-13T00:40:57.833Z,0
2017-03-13T00:41:57.791Z,0
2017-03-13T00:42:57.791Z,0
2017-03-13T00:43:57.765Z,0
2017-03-13T00:44:57.752Z,0
2017-03-13T00:45:57.736Z,0
2017-03-13T00:46:57.697Z,0
2017-03-13T00:47:57.690Z,0
2017-03-13T00:48:57.283Z,0
2017-03-13T00:49:57.269Z,0
2017-03-13T00:50:57.606Z,0
2017-03-13T00:51:57.593Z,0
2017-03-13T00:52:57.572Z,0
2017-03-13T00:53:57.552Z,0
2017-03-13T00:54:57.550Z,0
2017-03-13T00:55:57.522Z,0
2017-03-13T00:56:56.707Z,0
2017-03-13T00:57:57.482Z,0
2017-03-13T00:58:57.043Z,0
2017-03-13T00:59:57.419Z,0
2017-03-13T01:00:57.393Z,0
2017-03-13T01:01:57.422Z,0
2017-03-13T01:02:57.403Z,0
2017-03-13T01:03:57.361Z,0
2017-03-13T01:04:57.348Z,0
2017-03-13T01:05:57.292Z,0
2017-03-13T01:06:57.272Z,0
2017-03-13T01:07:57.290Z,0
2017-03-13T01:08:56.866Z,0
2017-03-13T01:09:57.230Z,0
2017-03-13T01:10:57.174Z,0
2017-03-13T01:11:57.243Z,0
2017-03-13T01:12:57.133Z,0
2017-03-13T01:13:57.149Z,0
2017-03-13T01:14:56.718Z,0
2017-03-13T01:15:57.082Z,0
2017-03-13T01:16:56.711Z,0
2017-03-13T01:17:57.071Z,0
2017-03-13T01:18:57.012Z,0
2017-03-13T01:19:56.653Z,0
2017-03-13T01:20:56.603Z,0
2017-03-13T01:21:56.586Z,0
2017-03-13T01:22:56.575Z,0
2017-03-13T01:23:56.569Z,0
2017-03-13T01:24:56.511Z,0
2017-03-13T01:25:56.514Z,0
2017-03-13T01:26:56.880Z,0
2017-03-13T01:27:56.857Z,0
2017-03-13T01:28:56.822Z,0
2017-03-13T01:29:56.769Z,0
2017-03-13T01:30:56.807Z,0
2017-03-13T01:31:56.809Z,0
2017-03-13T01:32:56.736Z,0
2017-03-13T01:33:56.735Z,0
2017-03-13T01:34:56.726Z,0
2017-03-13T01:35:56.690Z,0
2017-03-13T01:36:56.641Z,0
2017-03-13T01:37:56.229Z,0
2017-03-13T01:38:56.618Z,0
2017-03-13T01:39:56.582Z,0
2017-03-13T01:40:56.530Z,0
2017-03-13T01:41:56.542Z,0
2017-03-13T01:42:56.526Z,0
2017-03-13T01:43:56.493Z,0
2017-03-13T01:44:56.477Z,0
2017-03-13T01:45:56.446Z,0
2017-03-13T01:46:56.424Z,0
2017-03-13T01:47:56.422Z,0
2017-03-13T01:48:56.368Z,0
2017-03-13T01:49:55.977Z,0
2017-03-13T01:50:56.360Z,0
2017-03-13T01:51:56.342Z,0
2017-03-13T01:52:56.307Z,0
2017-03-13T01:53:56.282Z,0
2017-03-13T01:54:56.279Z,0
2017-03-13T01:55:56.238Z,0
2017-03-13T01:56:56.240Z,0
2017-03-13T01:57:55.807Z,0
2017-03-13T01:58:56.162Z,0
2017-03-13T01:59:56.138Z,0
2017-03-13T02:00:56.120Z,0
2017-03-13T02:01:56.135Z,0
2017-03-13T02:02:56.091Z,0
2017-03-13T02:03:56.065Z,0
2017-03-13T02:04:56.035Z,0
2017-03-13T02:05:56.030Z,0
2017-03-13T02:06:56.016Z,0
2017-03-13T02:07:56.023Z,0
2017-03-13T02:08:55.967Z,0
2017-03-13T02:09:55.961Z,0
2017-03-13T02:10:55.926Z,0
2017-03-13T02:11:55.895Z,0
2017-03-13T02:12:55.884Z,0
2017-03-13T02:13:55.864Z,0
2017-03-13T02:14:55.838Z,0
2017-03-13T02:15:55.811Z,0
2017-03-13T02:16:55.429Z,0
2017-03-13T02:17:55.366Z,0
2017-03-13T02:18:55.012Z,0
2017-03-13T02:19:55.341Z,0
2017-03-13T02:20:55.307Z,0
2017-03-13T02:21:55.661Z,0
2017-03-13T02:22:55.705Z,0
2017-03-13T02:23:55.639Z,0
2017-03-13T02:24:55.248Z,0
2017-03-13T02:25:55.594Z,0
2017-03-13T02:26:55.604Z,0
2017-03-13T02:27:55.561Z,0
2017-03-13T02:28:55.552Z,0
2017-03-13T02:29:55.501Z,0
2017-03-13T02:30:55.493Z,0
2017-03-13T02:31:55.490Z,0
2017-03-13T02:32:55.450Z,0
2017-03-13T02:33:55.428Z,0
2017-03-13T02:34:55.382Z,0
2017-03-13T02:35:55.381Z,0
2017-03-13T02:36:55.370Z,0
2017-03-13T02:37:55.326Z,0
2017-03-13T02:38:55.342Z,0
2017-03-13T02:39:55.281Z,0
2017-03-13T02:40:55.307Z,0
2017-03-13T02:41:55.262Z,0
2017-03-13T02:42:55.247Z,0
2017-03-13T02:43:55.222Z,0
2017-03-13T02:44:55.201Z,0
2017-03-13T02:45:55.154Z,0
2017-03-13T02:46:55.151Z,0
2017-03-13T02:47:55.104Z,0
2017-03-13T02:48:55.114Z,0
2017-03-13T02:49:55.085Z,0
2017-03-13T02:50:55.067Z,0
2017-03-13T02:51:55.039Z,0
2017-03-13T02:52:55.040Z,0
2017-03-13T02:53:54.999Z,0
2017-03-13T02:54:54.980Z,0
2017-03-13T02:55:54.968Z,0
2017-03-13T02:56:54.898Z,0
2017-03-13T02:57:54.936Z,0
2017-03-13T02:58:54.539Z,0
2017-03-13T02:59:54.878Z,0
2017-03-13T03:00:54.827Z,0
2017-03-13T03:01:54.830Z,0
2017-03-13T03:02:54.822Z,0
2017-03-13T03:03:54.773Z,0
2017-03-13T03:04:54.790Z,0
2017-03-13T03:05:54.743Z,0
2017-03-13T03:06:54.711Z,0
2017-03-13T03:07:54.709Z,0
2017-03-13T03:08:54.674Z,0
2017-03-13T03:09:54.710Z,0
2017-03-13T03:10:54.218Z,0
2017-03-13T03:11:54.225Z,0
2017-03-13T03:12:54.619Z,0
2017-03-13T03:13:54.238Z,0
2017-03-13T03:14:54.146Z,0
2017-03-13T03:15:54.183Z,0
2017-03-13T03:16:54.125Z,0
2017-03-13T03:17:54.511Z,0
2017-03-13T03:18:54.461Z,0
2017-03-13T03:19:54.455Z,0
2017-03-13T03:20:54.424Z,0
2017-03-13T03:21:54.428Z,0
2017-03-13T03:22:53.999Z,0
2017-03-13T03:23:54.382Z,0
2017-03-13T03:24:54.338Z,0
2017-03-13T03:25:54.310Z,0
2017-03-13T03:26:54.286Z,0
2017-03-13T03:27:54.298Z,0
2017-03-13T03:28:54.246Z,0
2017-03-13T03:29:53.836Z,0
2017-03-13T03:30:53.829Z,0
2017-03-13T03:31:54.189Z,0
2017-03-13T03:32:54.184Z,0
2017-03-13T03:33:54.121Z,0
2017-03-13T03:34:54.139Z,0
2017-03-13T03:35:54.108Z,0
2017-03-13T03:36:53.695Z,0
2017-03-13T03:37:54.045Z,0
2017-03-13T03:38:54.031Z,0
2017-03-13T03:39:53.638Z,0
2017-03-13T03:40:54.041Z,0
2017-03-13T03:41:53.582Z,0
2017-03-13T03:42:53.537Z,0
2017-03-13T03:43:53.927Z,0
2017-03-13T03:44:53.932Z,0
2017-03-13T03:45:53.864Z,0
2017-03-13T03:46:53.468Z,0
2017-03-13T03:47:53.823Z,0
2017-03-13T03:48:53.418Z,0
2017-03-13T03:49:53.402Z,0
2017-03-13T03:50:53.771Z,0
2017-03-13T03:51:53.719Z,0
2017-03-13T03:52:53.354Z,0
2017-03-13T03:53:53.700Z,0
2017-03-13T03:54:53.309Z,0
2017-03-13T03:55:53.265Z,0
2017-03-13T03:56:53.257Z,0
2017-03-13T03:57:53.249Z,0
2017-03-13T03:58:53.577Z,0
2017-03-13T03:59:53.622Z,0
2017-03-13T04:00:53.154Z,0
2017-03-13T04:01:53.528Z,0
2017-03-13T04:02:53.514Z,0
2017-03-13T04:03:53.468Z,0
2017-03-13T04:04:53.491Z,0
2017-03-13T04:05:53.076Z,0
2017-03-13T04:06:53.419Z,0
2017-03-13T04:07:53.401Z,0
2017-03-13T04:08:53.377Z,0
2017-03-13T04:09:53.404Z,0
2017-03-13T04:10:53.318Z,0
2017-03-13T04:11:53.304Z,0
2017-03-13T04:12:53.318Z,0
2017-03-13T04:13:53.279Z,0
2017-03-13T04:14:53.253Z,0
2017-03-13T04:15:53.218Z,0
2017-03-13T04:16:53.213Z,0
2017-03-13T04:17:53.176Z,0
2017-03-13T04:18:53.190Z,0
2017-03-13T04:19:53.126Z,0
2017-03-13T04:20:53.123Z,0
2017-03-13T04:21:53.085Z,0
2017-03-13T04:22:53.067Z,0
2017-03-13T04:23:53.078Z,0
2017-03-13T04:24:53.033Z,0
2017-03-13T04:25:53.006Z,0
2017-03-13T04:26:52.973Z,0
2017-03-13T04:27:52.961Z,0
2017-03-13T04:28:52.926Z,0
2017-03-13T04:29:52.960Z,0
2017-03-13T04:30:52.866Z,0
2017-03-13T04:31:52.857Z,0
2017-03-13T04:32:52.838Z,0
2017-03-13T04:33:52.868Z,0
2017-03-13T04:34:52.417Z,0
2017-03-13T04:35:52.821Z,0
2017-03-13T04:36:52.761Z,0
2017-03-13T04:37:52.780Z,0
2017-03-13T04:38:52.329Z,0
2017-03-13T04:39:52.703Z,0
2017-03-13T04:40:52.689Z,0
2017-03-13T04:41:52.641Z,0
2017-03-13T04:42:52.659Z,0
2017-03-13T04:43:52.609Z,0
2017-03-13T04:44:52.584Z,0
2017-03-13T04:45:52.543Z,0
2017-03-13T04:46:52.536Z,0
2017-03-13T04:47:52.545Z,0
2017-03-13T04:48:52.532Z,0
2017-03-13T04:49:52.493Z,0
2017-03-13T04:50:52.437Z,0
2017-03-13T04:51:52.454Z,0
2017-03-13T04:52:52.411Z,0
2017-03-13T04:53:52.410Z,0
2017-03-13T04:54:51.982Z,0
2017-03-13T04:55:52.330Z,0
2017-03-13T04:56:52.336Z,0
2017-03-13T04:57:52.296Z,0
2017-03-13T04:58:52.258Z,0
2017-03-13T04:59:52.243Z,0
2017-03-13T05:00:52.221Z,0
2017-03-13T05:01:51.795Z,0
2017-03-13T05:02:51.803Z,0
2017-03-13T05:03:51.770Z,0
2017-03-13T05:04:51.724Z,0
2017-03-13T05:05:52.111Z,0
2017-03-13T05:06:52.092Z,0
2017-03-13T05:07:52.038Z,0
2017-03-13T05:08:52.039Z,0
2017-03-13T05:09:52.015Z,0
2017-03-13T05:10:52.026Z,0
2017-03-13T05:11:51.963Z,0
2017-03-13T05:12:51.928Z,0
2017-03-13T05:13:51.949Z,0
2017-03-13T05:14:51.528Z,0
2017-03-13T05:15:51.887Z,0
2017-03-13T05:16:51.863Z,0
2017-03-13T05:17:51.839Z,5
2017-03-13T05:18:51.437Z,5
2017-03-13T05:19:51.429Z,5
2017-03-13T05:20:51.400Z,10
2017-03-13T05:21:51.755Z,10
2017-03-13T05:22:51.734Z,10
2017-03-13T05:23:51.691Z,15
2017-03-13T05:24:51.707Z,15
2017-03-13T05:25:51.315Z,20
2017-03-13T05:26:51.242Z,20
2017-03-13T05:27:51.232Z,20
2017-03-13T05:28:51.226Z,25
2017-03-13T05:29:51.583Z,25
2017-03-13T05:30:51.547Z,30
2017-03-13T05:31:51.139Z,30
2017-03-13T05:32:51.526Z,30
2017-03-13T05:33:51.490Z,35
2017-03-13T05:34:51.485Z,40
2017-03-13T05:35:51.419Z,45
2017-03-13T05:36:51.402Z,45
2017-03-13T05:37:51.398Z,50
2017-03-13T05:38:51.339Z,55
2017-03-13T05:39:51.361Z,60
2017-03-13T05:40:51.317Z,65
2017-03-13T05:41:51.318Z,90
2017-03-13T05:42:51.283Z,105
2017-03-13T05:43:51.243Z,120
2017-03-13T05:44:51.266Z,130
2017-03-13T05:45:51.214Z,145
2017-03-13T05:46:51.158Z,160
2017-03-13T05:47:51.174Z,165
2017-03-13T05:48:51.135Z,180
2017-03-13T05:49:51.123Z,185
2017-03-13T05:50:51.126Z,190
2017-03-13T05:51:51.076Z,195
2017-03-13T05:52:51.082Z,205
2017-03-13T05:53:51.069Z,180
2017-03-13T05:54:51.027Z,155
2017-03-13T05:55:50.991Z,160
2017-03-13T05:56:50.969Z,180
2017-03-13T05:57:50.927Z,200
2017-03-13T05:58:50.512Z,190
2017-03-13T05:59:50.900Z,180
2017-03-13T06:00:50.888Z,185
2017-03-13T06:01:50.859Z,195
2017-03-13T06:02:50.846Z,200
2017-03-13T06:03:50.817Z,210
2017-03-13T06:04:50.811Z,220
2017-03-13T06:05:50.800Z,230
2017-03-13T06:06:50.722Z,235
2017-03-13T06:07:50.323Z,235
2017-03-13T06:08:50.672Z,240
2017-03-13T06:09:50.667Z,245
2017-03-13T06:10:50.656Z,250
2017-03-13T06:11:50.618Z,260
2017-03-13T06:12:50.607Z,270
2017-03-13T06:13:50.603Z,280
2017-03-13T06:14:50.580Z,290
2017-03-13T06:15:50.582Z,300
2017-03-13T06:16:50.512Z,340
2017-03-13T06:17:50.496Z,405
2017-03-13T06:18:50.485Z,470
2017-03-13T06:19:50.455Z,500
2017-03-13T06:20:50.412Z,520
2017-03-13T06:21:50.416Z,520
2017-03-13T06:22:50.385Z,510
2017-03-13T06:23:50.365Z,500
2017-03-13T06:24:50.348Z,515
2017-03-13T06:25:50.333Z,545
2017-03-13T06:26:50.328Z,575
2017-03-13T06:27:50.295Z,585
2017-03-13T06:28:50.265Z,585
2017-03-13T06:29:50.238Z,595
2017-03-13T06:30:50.217Z,645
2017-03-13T06:31:50.250Z,705
2017-03-13T06:32:50.210Z,725
2017-03-13T06:33:50.192Z,750
2017-03-13T06:34:50.170Z,775
2017-03-13T06:35:50.161Z,790
2017-03-13T06:36:50.109Z,815
2017-03-13T06:37:49.715Z,850
2017-03-13T06:38:49.706Z,850
2017-03-13T06:39:50.070Z,785
2017-03-13T06:40:50.027Z,770
2017-03-13T06:41:50.032Z,690
2017-03-13T06:42:50.031Z,680
2017-03-13T06:43:50.002Z,660
2017-03-13T06:44:49.976Z,560
2017-03-13T06:45:49.946Z,710
2017-03-13T06:46:49.957Z,530
2017-03-13T06:47:49.935Z,510
2017-03-13T06:48:49.895Z,610
2017-03-13T06:49:49.874Z,645
2017-03-13T06:50:49.888Z,790
2017-03-13T06:51:49.837Z,650
2017-03-13T06:52:49.830Z,585
2017-03-13T06:53:49.796Z,620
2017-03-13T06:54:49.450Z,665
2017-03-13T06:55:49.746Z,760
2017-03-13T06:56:49.745Z,590
2017-03-13T06:57:48.935Z,610
2017-03-13T06:58:49.688Z,725
2017-03-13T06:59:49.696Z,835
2017-03-13T07:00:49.670Z,845
2017-03-13T07:01:49.644Z,815
2017-03-13T07:02:49.622Z,845
2017-03-13T07:03:49.607Z,770
2017-03-13T07:04:49.598Z,1300
2017-03-13T07:05:49.569Z,1285
2017-03-13T07:06:49.556Z,1155
2017-03-13T07:07:49.159Z,1215
2017-03-13T07:08:49.522Z,1260
2017-03-13T07:09:49.530Z,1240
2017-03-13T07:10:49.463Z,1255
2017-03-13T07:11:49.131Z,1160
2017-03-13T07:12:49.453Z,1215
2017-03-13T07:13:49.436Z,915
2017-03-13T07:14:49.432Z,1025
2017-03-13T07:15:49.427Z,1285
2017-03-13T07:16:49.399Z,1235
2017-03-13T07:17:48.989Z,1220
2017-03-13T07:18:49.378Z,1180
2017-03-13T07:19:49.329Z,1260
2017-03-13T07:20:49.305Z,930
2017-03-13T07:21:48.915Z,1395
2017-03-13T07:22:48.893Z,1350
2017-03-13T07:23:49.244Z,1170
2017-03-13T07:24:49.213Z,1265
2017-03-13T07:25:49.205Z,1420
2017-03-13T07:26:49.173Z,1445
2017-03-13T07:27:49.166Z,1370
2017-03-13T07:28:49.162Z,1370
2017-03-13T07:29:49.142Z,1535
2017-03-13T07:30:49.114Z,1555
2017-03-13T07:31:49.121Z,1390
2017-03-13T07:32:49.138Z,1465
2017-03-13T07:33:48.685Z,1610
2017-03-13T07:34:48.672Z,1495
2017-03-13T07:35:49.012Z,1455
2017-03-13T07:36:49.013Z,1580
2017-03-13T07:37:48.989Z,1495
2017-03-13T07:38:48.977Z,1225
2017-03-13T07:39:48.999Z,1360
2017-03-13T07:40:48.949Z,1330
2017-03-13T07:41:48.913Z,1525
2017-03-13T07:42:48.946Z,1580
2017-03-13T07:43:48.875Z,1635
2017-03-13T07:44:48.486Z,1715
2017-03-13T07:45:48.843Z,1590
2017-03-13T07:46:48.827Z,1660
2017-03-13T07:47:48.806Z,1670
2017-03-13T07:48:48.799Z,1630
2017-03-13T07:49:48.373Z,1705
2017-03-13T07:50:48.743Z,1670
2017-03-13T07:51:48.794Z,1685
2017-03-13T07:52:48.772Z,1760
2017-03-13T07:53:48.283Z,1795
2017-03-13T07:54:48.289Z,1890
2017-03-13T07:55:48.682Z,1840
2017-03-13T07:56:48.622Z,1835
2017-03-13T07:57:48.602Z,1830
2017-03-13T07:58:48.829Z,1860
2017-03-13T07:59:48.543Z,1965
2017-03-13T08:00:48.571Z,1855
2017-03-13T08:01:48.151Z,2075
2017-03-13T08:02:48.522Z,1930
2017-03-13T08:03:48.491Z,1945
2017-03-13T08:04:48.510Z,2055
2017-03-13T08:05:48.457Z,1835
2017-03-13T08:06:48.453Z,1960
2017-03-13T08:07:48.402Z,2060
2017-03-13T08:08:48.451Z,2285
2017-03-13T08:09:48.393Z,2210
2017-03-13T08:10:48.383Z,2000
2017-03-13T08:11:48.351Z,1925
2017-03-13T08:12:48.347Z,2120
2017-03-13T08:13:48.314Z,2365
2017-03-13T08:14:48.299Z,2180
2017-03-13T08:15:47.916Z,2050
2017-03-13T08:16:48.315Z,2225
2017-03-13T08:17:48.236Z,2125
2017-03-13T08:18:48.229Z,2095
2017-03-13T08:19:48.191Z,2265
2017-03-13T08:20:47.780Z,2655
2017-03-13T08:21:48.178Z,2120
2017-03-13T08:22:48.144Z,2170
2017-03-13T08:23:48.142Z,2175
2017-03-13T08:24:48.104Z,2080
2017-03-13T08:25:47.704Z,2230
2017-03-13T08:26:48.067Z,2240
2017-03-13T08:27:48.055Z,2170
2017-03-13T08:28:48.041Z,2235
2017-03-13T08:29:47.636Z,2010
2017-03-13T08:30:47.987Z,2200
2017-03-13T08:31:47.962Z,2275
2017-03-13T08:32:47.943Z,2340
2017-03-13T08:33:47.582Z,2145
2017-03-13T08:34:47.945Z,2140
2017-03-13T08:35:47.902Z,2495
2017-03-13T08:36:47.875Z,2250
2017-03-13T08:37:47.841Z,2410
2017-03-13T08:38:47.431Z,2265
2017-03-13T08:40:01.216Z,2355
2017-03-13T08:40:47.778Z,2370
2017-03-13T08:41:47.787Z,2585
2017-03-13T08:42:47.774Z,2770
2017-03-13T08:43:47.755Z,2900
2017-03-13T08:44:47.691Z,2795
2017-03-13T08:45:47.334Z,2600
2017-03-13T08:46:47.715Z,2425
2017-03-13T08:47:47.650Z,2550
2017-03-13T08:48:47.624Z,3280
2017-03-13T08:49:47.633Z,2560
2017-03-13T08:50:47.647Z,2260
2017-03-13T08:51:47.567Z,1910
2017-03-13T08:52:47.540Z,1530
2017-03-13T08:53:47.527Z,1395
2017-03-13T08:54:47.509Z,1380
2017-03-13T08:55:47.534Z,1405
2017-03-13T08:56:47.129Z,1505
2017-03-13T08:57:47.089Z,2045
2017-03-13T08:58:47.421Z,3360
2017-03-13T08:59:47.450Z,4030
2017-03-13T09:00:47.373Z,3395
2017-03-13T09:01:47.374Z,2830
2017-03-13T09:02:46.976Z,2655
2017-03-13T09:03:47.369Z,2895
2017-03-13T09:04:47.318Z,2860
2017-03-13T09:05:47.325Z,2610
2017-03-13T09:06:47.273Z,2505
2017-03-13T09:07:47.262Z,2645
2017-03-13T09:08:47.232Z,2570
2017-03-13T09:09:47.213Z,2610
2017-03-13T09:10:47.178Z,2290
2017-03-13T09:11:46.814Z,3070
2017-03-13T09:12:46.753Z,2725
2017-03-13T09:13:47.111Z,2795
2017-03-13T09:15:00.773Z,2945
2017-03-13T09:15:47.096Z,2935
2017-03-13T09:16:46.732Z,2775
2017-03-13T09:17:47.065Z,2340
2017-03-13T09:18:47.046Z,2735
2017-03-13T09:19:47.227Z,2705
2017-03-13T09:20:46.995Z,2310
2017-03-13T09:21:46.986Z,2145
2017-03-13T09:22:46.975Z,2660
2017-03-13T09:23:46.921Z,2745
2017-03-13T09:24:46.923Z,2850
2017-03-13T09:25:46.909Z,2830
2017-03-13T09:26:46.513Z,3075
2017-03-13T09:27:46.878Z,3050
2017-03-13T09:28:46.846Z,3010
2017-03-13T09:29:46.865Z,2975
2017-03-13T09:30:46.449Z,3085
2017-03-13T09:31:46.415Z,3295
2017-03-13T09:32:46.835Z,3205
2017-03-13T09:33:46.759Z,2950
2017-03-13T09:34:46.755Z,2505
2017-03-13T09:35:46.710Z,2435
2017-03-13T09:36:59.686Z,2575
2017-03-13T09:37:46.667Z,2995
2017-03-13T09:38:46.666Z,3320
2017-03-13T09:39:46.663Z,3220
2017-03-13T09:40:46.255Z,3165
2017-03-13T09:41:45.871Z,3355
2017-03-13T09:42:46.584Z,3180
2017-03-13T09:43:46.585Z,2955
2017-03-13T09:44:46.556Z,3255
2017-03-13T09:45:46.548Z,2990
2017-03-13T09:47:00.176Z,2855
2017-03-13T09:47:46.706Z,2830
2017-03-13T09:48:46.678Z,2955
2017-03-13T09:49:46.486Z,3415
2017-03-13T09:50:46.079Z,3455
2017-03-13T09:51:46.475Z,3115
2017-03-13T09:52:46.450Z,3110
2017-03-13T09:53:46.400Z,3365
2017-03-13T09:54:46.609Z,3175
2017-03-13T09:55:45.992Z,3350
2017-03-13T09:56:45.974Z,3335
2017-03-13T09:57:46.378Z,3105
2017-03-13T09:58:46.323Z,3165
2017-03-13T09:59:46.297Z,3105
2017-03-13T10:00:46.316Z,3015
2017-03-13T10:01:46.271Z,3230
2017-03-13T10:02:46.224Z,3035
2017-03-13T10:03:46.283Z,2725
2017-03-13T10:04:46.223Z,3115
2017-03-13T10:05:46.185Z,3745
2017-03-13T10:06:46.220Z,4110
2017-03-13T10:07:45.763Z,4335
2017-03-13T10:08:46.163Z,4015
2017-03-13T10:09:46.146Z,3620
2017-03-13T10:10:46.121Z,2795
2017-03-13T10:11:46.137Z,2080
2017-03-13T10:12:46.088Z,1725
2017-03-13T10:13:46.066Z,1575
2017-03-13T10:14:46.066Z,1560
2017-03-13T10:15:46.033Z,1505
2017-03-13T10:16:46.035Z,1470
2017-03-13T10:17:46.203Z,1520
2017-03-13T10:18:46.000Z,1745
2017-03-13T10:19:45.978Z,2275
2017-03-13T10:20:45.935Z,3220
2017-03-13T10:21:45.951Z,3775
2017-03-13T10:22:45.932Z,3870
2017-03-13T10:23:45.910Z,3715
2017-03-13T10:24:46.088Z,3105
2017-03-13T10:25:45.519Z,3075
2017-03-13T10:26:45.883Z,3125
2017-03-13T10:27:45.878Z,3070
2017-03-13T10:28:45.824Z,3170
2017-03-13T10:29:45.825Z,3125
2017-03-13T10:30:45.408Z,3105
2017-03-13T10:31:45.809Z,3020
2017-03-13T10:32:45.770Z,2850
2017-03-13T10:33:45.360Z,2875
2017-03-13T10:34:45.740Z,2390
2017-03-13T10:35:45.323Z,2045
2017-03-13T10:36:45.729Z,2950
2017-03-13T10:37:45.692Z,4240
2017-03-13T10:38:45.715Z,3670
2017-03-13T10:39:45.667Z,2800
2017-03-13T10:40:45.667Z,2665
2017-03-13T10:41:45.670Z,2670
2017-03-13T10:42:45.690Z,2795
2017-03-13T10:43:45.633Z,2590
2017-03-13T10:44:45.625Z,2665
2017-03-13T10:45:45.584Z,2965
2017-03-13T10:46:45.594Z,3110
2017-03-13T10:47:45.178Z,2975
2017-03-13T10:48:45.568Z,3175
2017-03-13T10:49:45.565Z,3020
2017-03-13T10:50:45.558Z,3010
2017-03-13T10:51:45.128Z,3190
2017-03-13T10:52:45.512Z,3040
2017-03-13T10:53:45.483Z,2960
2017-03-13T10:54:45.706Z,2815
2017-03-13T10:55:44.888Z,3015
2017-03-13T10:56:44.919Z,2985
2017-03-13T10:57:45.039Z,2955
2017-03-13T10:58:45.425Z,3015
2017-03-13T10:59:45.380Z,2440
2017-03-13T11:00:44.984Z,2335
2017-03-13T11:01:44.594Z,2310
2017-03-13T11:02:45.368Z,2400
2017-03-13T11:03:45.331Z,2405
2017-03-13T11:04:45.295Z,2610
2017-03-13T11:05:45.298Z,3270
2017-03-13T11:06:45.471Z,3455
2017-03-13T11:07:45.260Z,3110
2017-03-13T11:08:44.897Z,3085
2017-03-13T11:09:44.831Z,3360
2017-03-13T11:10:45.219Z,3320
2017-03-13T11:11:45.168Z,3145
2017-03-13T11:12:44.778Z,3210
2017-03-13T11:13:45.169Z,3180
2017-03-13T11:14:44.762Z,3420
2017-03-13T11:15:45.110Z,3435
2017-03-13T11:16:45.088Z,3635
2017-03-13T11:17:44.719Z,3775
2017-03-13T11:18:44.700Z,3535
2017-03-13T11:19:45.051Z,3410
2017-03-13T11:20:45.042Z,3000
2017-03-13T11:21:45.027Z,2640
2017-03-13T11:22:44.994Z,3205
2017-03-13T11:23:44.987Z,3450
2017-03-13T11:24:44.801Z,4170
2017-03-13T11:25:44.951Z,4575
2017-03-13T11:26:44.966Z,4265
2017-03-13T11:27:44.931Z,3750
2017-03-13T11:28:44.898Z,3520
2017-03-13T11:29:44.912Z,3620
2017-03-13T11:30:45.088Z,3440
2017-03-13T11:31:44.837Z,3095
2017-03-13T11:32:44.823Z,2805
2017-03-13T11:33:44.830Z,3225
2017-03-13T11:34:44.801Z,3325
2017-03-13T11:35:44.783Z,3235
2017-03-13T11:36:44.948Z,3330
2017-03-13T11:37:44.735Z,2940
2017-03-13T11:38:44.352Z,2525
2017-03-13T11:39:44.715Z,2255
2017-03-13T11:40:44.736Z,1810
2017-03-13T11:41:44.694Z,1615
2017-03-13T11:42:44.659Z,1635
2017-03-13T11:43:44.653Z,2070
2017-03-13T11:44:44.638Z,2715
2017-03-13T11:45:44.629Z,3620
2017-03-13T11:46:44.612Z,3900
2017-03-13T11:47:44.593Z,3175
2017-03-13T11:48:44.175Z,3435
2017-03-13T11:49:44.537Z,4135
2017-03-13T11:50:44.531Z,4020
2017-03-13T11:51:44.501Z,3070
2017-03-13T11:52:44.496Z,2695
2017-03-13T11:53:44.471Z,2860
2017-03-13T11:54:44.480Z,3320
2017-03-13T11:55:44.448Z,3775
2017-03-13T11:56:44.081Z,4200
2017-03-13T11:57:44.463Z,4255
2017-03-13T11:58:44.378Z,3455
2017-03-13T11:59:44.379Z,3410
2017-03-13T12:00:44.396Z,3755
2017-03-13T12:01:44.363Z,3385
2017-03-13T12:02:44.371Z,3035
2017-03-13T12:03:44.313Z,2550
2017-03-13T12:04:44.304Z,2775
2017-03-13T12:05:44.296Z,3035
2017-03-13T12:06:44.313Z,3025
2017-03-13T12:07:44.245Z,2840
2017-03-13T12:08:44.225Z,2960
2017-03-13T12:09:44.197Z,3150
2017-03-13T12:10:44.195Z,3040
2017-03-13T12:11:43.783Z,2975
2017-03-13T12:12:44.380Z,2800
2017-03-13T12:13:44.155Z,2895
2017-03-13T12:14:44.141Z,2950
2017-03-13T12:15:44.103Z,3125
2017-03-13T12:16:44.082Z,3620
2017-03-13T12:17:44.096Z,3355
2017-03-13T12:18:43.674Z,3405
2017-03-13T12:19:44.068Z,2995
2017-03-13T12:20:44.003Z,2985
2017-03-13T12:21:43.982Z,3625
2017-03-13T12:22:43.981Z,3820
2017-03-13T12:23:43.983Z,3640
2017-03-13T12:24:43.964Z,3695
2017-03-13T12:25:43.909Z,3460
2017-03-13T12:26:43.919Z,3215
2017-03-13T12:27:43.915Z,3415
2017-03-13T12:28:43.879Z,3680
2017-03-13T12:29:43.480Z,3620
2017-03-13T12:30:43.455Z,3230
2017-03-13T12:31:43.830Z,3690
2017-03-13T12:32:43.790Z,3685
2017-03-13T12:33:43.823Z,2650
2017-03-13T12:34:43.369Z,2745
2017-03-13T12:35:43.756Z,3510
2017-03-13T12:36:43.742Z,4050
2017-03-13T12:37:43.724Z,4280
2017-03-13T12:38:43.695Z,4135
2017-03-13T12:39:43.287Z,3905
2017-03-13T12:40:43.693Z,3410
2017-03-13T12:41:43.643Z,3300
2017-03-13T12:42:42.859Z,3825
2017-03-13T12:43:43.615Z,3240
2017-03-13T12:44:43.596Z,2925
2017-03-13T12:45:43.583Z,3305
2017-03-13T12:46:43.166Z,3030
2017-03-13T12:47:43.560Z,2950
2017-03-13T12:48:43.518Z,2760
2017-03-13T12:49:43.139Z,3085
2017-03-13T12:50:43.109Z,3670
2017-03-13T12:54:12.823Z,3035
2017-03-13T12:54:23.080Z,3055
2017-03-13T12:55:23.070Z,3010
2017-03-13T12:56:23.468Z,2870
2017-03-13T12:57:23.387Z,2840
2017-03-13T12:58:22.990Z,3040
2017-03-13T12:59:23.359Z,2865
2017-03-13T13:00:23.339Z,3150
2017-03-13T13:01:23.297Z,3450
2017-03-13T13:02:23.287Z,3095
2017-03-13T13:03:23.274Z,2845
2017-03-13T13:04:22.842Z,2800
2017-03-13T13:05:23.234Z,2930
2017-03-13T13:06:22.815Z,3090
2017-03-13T13:07:23.192Z,3205
2017-03-13T13:08:22.806Z,3030
2017-03-13T13:09:23.166Z,2695
2017-03-13T13:10:22.716Z,2735
2017-03-13T13:11:23.104Z,2810
2017-03-13T13:12:22.733Z,2895
2017-03-13T13:13:23.102Z,3430
2017-03-13T13:14:23.075Z,3260
2017-03-13T13:15:23.034Z,2700
2017-03-13T13:16:22.659Z,2785
2017-03-13T13:17:23.019Z,3005
2017-03-13T13:18:22.597Z,2940
2017-03-13T13:19:22.989Z,2925
2017-03-13T13:20:22.579Z,2905
2017-03-13T13:21:22.979Z,2890
2017-03-13T13:22:22.939Z,2760
2017-03-13T13:23:22.508Z,2620
2017-03-13T13:24:22.916Z,2885
2017-03-13T13:25:22.881Z,3210
2017-03-13T13:26:22.472Z,3125
2017-03-13T13:27:22.436Z,2905
2017-03-13T13:28:22.844Z,2685
2017-03-13T13:29:22.805Z,2685
2017-03-13T13:30:22.782Z,2675
2017-03-13T13:31:22.772Z,2890
2017-03-13T13:32:21.972Z,3000
2017-03-13T13:33:22.744Z,2825
2017-03-13T13:34:22.751Z,2840
2017-03-13T13:35:22.702Z,2815
2017-03-13T13:36:22.315Z,2740
2017-03-13T13:37:22.281Z,2795
2017-03-13T13:38:22.655Z,3035
2017-03-13T13:39:22.663Z,2935
2017-03-13T13:40:22.589Z,2850
2017-03-13T13:41:22.602Z,2940
2017-03-13T13:42:22.600Z,2840
2017-03-13T13:43:22.153Z,2645
2017-03-13T13:44:22.555Z,2545
2017-03-13T13:45:22.523Z,2585
2017-03-13T13:46:22.496Z,2665
2017-03-13T13:47:22.107Z,2700
2017-03-13T13:48:22.473Z,2620
2017-03-13T13:49:22.470Z,2830
2017-03-13T13:50:22.436Z,2890
2017-03-13T13:51:22.418Z,2705
2017-03-13T13:52:22.417Z,2760
2017-03-13T13:53:22.383Z,2815
2017-03-13T13:54:22.382Z,2700
2017-03-13T13:55:22.342Z,2715
2017-03-13T13:56:22.337Z,2870